sensor_id;sensor_type;location;lat;lon;timestamp;temperature;humidity
5554;DHT22;2800;49.528;8.666;2023-04-01T00:00:57;9.70;99.90
5554;DHT22;2800;49.528;8.666;2023-04-01T00:03:23;10.50;99.90
5554;DHT22;2800;49.528;8.666;2023-04-01T00:05:50;9.70;99.90
5554;DHT22;2800;49.528;8.666;2023-04-01T00:08:15;9.70;99.90
5554;DHT22;2800;49.528;8.666;2023-04-01T00:10:41;9.70;99.90
5554;DHT22;2800;49.528;8.666;2023-04-01T00:13:07;9.70;99.90
5554;DHT22;2800;49.528;8.666;2023-04-01T00:15:33;9.70;99.90
5554;DHT22;2800;49.528;8.666;2023-04-01T00:17:59;9.70;99.90
5554;DHT22;2800;49.528;8.666;2023-04-01T00:20:25;9.60;99.90
5554;DHT22;2800;49.528;8.666;2023-04-01T00:22:50;9.60;99.90
5554;DHT22;2800;49.528;8.666;2023-04-01T00:25:16;9.60;99.90
5554;DHT22;2800;49.528;8.666;2023-04-01T00:27:42;9.70;99.90
5554;DHT22;2800;49.528;8.666;2023-04-01T00:30:08;9.60;99.90
5554;DHT22;2800;49.528;8.666;2023-04-01T00:32:34;9.60;99.90
5554;DHT22;2800;49.528;8.666;2023-04-01T00:35:00;9.60;99.90
5554;DHT22;2800;49.528;8.666;2023-04-01T00:37:27;9.60;99.90
5554;DHT22;2800;49.528;8.666;2023-04-01T00:39:53;9.60;99.90
5554;DHT22;2800;49.528;8.666;2023-04-01T00:42:19;9.60;99.90
5554;DHT22;2800;49.528;8.666;2023-04-01T00:44:49;9.60;99.90
5554;DHT22;2800;49.528;8.666;2023-04-01T00:47:16;9.60;99.90
5554;DHT22;2800;49.528;8.666;2023-04-01T00:49:45;9.60;99.90
5554;DHT22;2800;49.528;8.666;2023-04-01T00:52:15;9.60;99.90
5554;DHT22;2800;49.528;8.666;2023-04-01T00:54:46;9.60;99.90
5554;DHT22;2800;49.528;8.666;2023-04-01T00:57:18;9.60;99.90
5554;DHT22;2800;49.528;8.666;2023-04-01T00:59:48;9.60;99.90
5554;DHT22;2800;49.528;8.666;2023-04-01T01:02:16;9.50;99.90
5554;DHT22;2800;49.528;8.666;2023-04-01T01:04:41;9.50;99.90
5554;DHT22;2800;49.528;8.666;2023-04-01T01:07:44;9.50;99.90
5554;DHT22;2800;49.528;8.666;2023-04-01T01:10:23;9.50;99.90
5554;DHT22;2800;49.528;8.666;2023-04-01T01:13:24;9.50;99.90
5554;DHT22;2800;49.528;8.666;2023-04-01T01:16:00;9.50;99.90
5554;DHT22;2800;49.528;8.666;2023-04-01T01:18:53;9.50;99.90
5554;DHT22;2800;49.528;8.666;2023-04-01T01:24:13;9.60;99.90
5554;DHT22;2800;49.528;8.666;2023-04-01T01:26:53;9.60;99.90
5554;DHT22;2800;49.528;8.666;2023-04-01T01:34:55;9.70;99.90
5554;DHT22;2800;49.528;8.666;2023-04-01T01:37:25;9.70;99.90
5554;DHT22;2800;49.528;8.666;2023-04-01T01:40:04;9.70;99.90
5554;DHT22;2800;49.528;8.666;2023-04-01T01:42:34;9.70;99.90
5554;DHT22;2800;49.528;8.666;2023-04-01T01:45:01;9.70;99.90
5554;DHT22;2800;49.528;8.666;2023-04-01T01:47:28;9.70;99.90
5554;DHT22;2800;49.528;8.666;2023-04-01T01:49:55;9.70;99.90
5554;DHT22;2800;49.528;8.666;2023-04-01T01:52:24;9.80;99.90
5554;DHT22;2800;49.528;8.666;2023-04-01T01:54:51;9.80;99.90
5554;DHT22;2800;49.528;8.666;2023-04-01T01:57:22;9.80;99.90
5554;DHT22;2800;49.528;8.666;2023-04-01T01:59:50;9.80;99.90
5554;DHT22;2800;49.528;8.666;2023-04-01T02:02:17;9.80;99.90
5554;DHT22;2800;49.528;8.666;2023-04-01T02:04:44;9.80;99.90
5554;DHT22;2800;49.528;8.666;2023-04-01T02:07:36;9.80;99.90
5554;DHT22;2800;49.528;8.666;2023-04-01T02:10:03;9.80;99.90
5554;DHT22;2800;49.528;8.666;2023-04-01T02:12:29;9.80;99.90
5554;DHT22;2800;49.528;8.666;2023-04-01T02:15:15;9.80;99.90
5554;DHT22;2800;49.528;8.666;2023-04-01T02:17:43;9.80;99.90
5554;DHT22;2800;49.528;8.666;2023-04-01T02:20:16;9.80;99.90
5554;DHT22;2800;49.528;8.666;2023-04-01T02:22:54;9.80;99.90
5554;DHT22;2800;49.528;8.666;2023-04-01T02:25:26;9.80;99.90
5554;DHT22;2800;49.528;8.666;2023-04-01T02:27:53;9.80;99.90
5554;DHT22;2800;49.528;8.666;2023-04-01T02:30:20;9.80;99.90
5554;DHT22;2800;49.528;8.666;2023-04-01T02:32:46;9.70;99.90
5554;DHT22;2800;49.528;8.666;2023-04-01T02:35:14;9.70;99.90
5554;DHT22;2800;49.528;8.666;2023-04-01T02:37:41;9.70;99.90
5554;DHT22;2800;49.528;8.666;2023-04-01T02:40:09;9.70;99.90
5554;DHT22;2800;49.528;8.666;2023-04-01T02:42:36;9.70;99.90
5554;DHT22;2800;49.528;8.666;2023-04-01T02:45:02;9.80;99.90
5554;DHT22;2800;49.528;8.666;2023-04-01T02:47:27;9.80;99.90
5554;DHT22;2800;49.528;8.666;2023-04-01T02:49:53;9.80;99.90
5554;DHT22;2800;49.528;8.666;2023-04-01T02:52:28;9.80;99.90
5554;DHT22;2800;49.528;8.666;2023-04-01T02:54:53;9.80;99.90
5554;DHT22;2800;49.528;8.666;2023-04-01T02:57:19;9.80;99.90
5554;DHT22;2800;49.528;8.666;2023-04-01T02:59:45;9.80;99.90
5554;DHT22;2800;49.528;8.666;2023-04-01T03:02:10;9.80;99.90
5554;DHT22;2800;49.528;8.666;2023-04-01T03:04:36;9.80;99.90
5554;DHT22;2800;49.528;8.666;2023-04-01T03:07:01;9.80;99.90
5554;DHT22;2800;49.528;8.666;2023-04-01T03:09:27;9.70;99.90
5554;DHT22;2800;49.528;8.666;2023-04-01T03:11:54;9.70;99.90
5554;DHT22;2800;49.528;8.666;2023-04-01T03:14:20;9.70;99.90
5554;DHT22;2800;49.528;8.666;2023-04-01T03:16:45;9.60;99.90
5554;DHT22;2800;49.528;8.666;2023-04-01T03:19:11;9.60;99.90
5554;DHT22;2800;49.528;8.666;2023-04-01T03:21:36;9.60;99.90
5554;DHT22;2800;49.528;8.666;2023-04-01T03:24:02;9.60;99.90
5554;DHT22;2800;49.528;8.666;2023-04-01T03:26:27;9.60;99.90
5554;DHT22;2800;49.528;8.666;2023-04-01T03:28:53;9.60;99.90
5554;DHT22;2800;49.528;8.666;2023-04-01T03:31:20;9.60;99.90
5554;DHT22;2800;49.528;8.666;2023-04-01T03:33:45;9.60;99.90
5554;DHT22;2800;49.528;8.666;2023-04-01T03:36:11;9.60;99.90
5554;DHT22;2800;49.528;8.666;2023-04-01T03:38:39;9.60;99.90
5554;DHT22;2800;49.528;8.666;2023-04-01T03:41:05;9.60;99.90
5554;DHT22;2800;49.528;8.666;2023-04-01T03:43:31;9.60;99.90
5554;DHT22;2800;49.528;8.666;2023-04-01T03:45:57;9.60;99.90
5554;DHT22;2800;49.528;8.666;2023-04-01T03:48:23;9.60;99.90
5554;DHT22;2800;49.528;8.666;2023-04-01T03:50:49;9.60;99.90
5554;DHT22;2800;49.528;8.666;2023-04-01T03:53:15;9.60;99.90
5554;DHT22;2800;49.528;8.666;2023-04-01T03:55:40;9.60;99.90
5554;DHT22;2800;49.528;8.666;2023-04-01T03:58:07;9.60;99.90
5554;DHT22;2800;49.528;8.666;2023-04-01T04:00:32;9.70;99.90
5554;DHT22;2800;49.528;8.666;2023-04-01T04:02:59;9.60;99.90
5554;DHT22;2800;49.528;8.666;2023-04-01T04:05:25;9.70;99.90
5554;DHT22;2800;49.528;8.666;2023-04-01T04:07:51;9.70;99.90
5554;DHT22;2800;49.528;8.666;2023-04-01T04:10:17;9.80;99.90
5554;DHT22;2800;49.528;8.666;2023-04-01T04:12:43;9.70;99.90
5554;DHT22;2800;49.528;8.666;2023-04-01T04:15:09;9.70;99.90
5554;DHT22;2800;49.528;8.666;2023-04-01T04:17:34;9.80;99.90
5554;DHT22;2800;49.528;8.666;2023-04-01T04:20:00;9.80;99.90
5554;DHT22;2800;49.528;8.666;2023-04-01T04:22:27;9.80;99.90
5554;DHT22;2800;49.528;8.666;2023-04-01T04:24:52;9.80;99.90
5554;DHT22;2800;49.528;8.666;2023-04-01T04:27:18;9.80;99.90
5554;DHT22;2800;49.528;8.666;2023-04-01T04:29:43;9.80;99.90
5554;DHT22;2800;49.528;8.666;2023-04-01T04:32:09;9.80;99.90
5554;DHT22;2800;49.528;8.666;2023-04-01T04:34:34;9.70;99.90
5554;DHT22;2800;49.528;8.666;2023-04-01T04:37:00;9.70;99.90
5554;DHT22;2800;49.528;8.666;2023-04-01T04:39:26;9.80;99.90
5554;DHT22;2800;49.528;8.666;2023-04-01T04:41:51;9.70;99.90
5554;DHT22;2800;49.528;8.666;2023-04-01T04:44:17;9.70;99.90
5554;DHT22;2800;49.528;8.666;2023-04-01T04:46:42;9.60;99.90
5554;DHT22;2800;49.528;8.666;2023-04-01T04:49:08;9.60;99.90
5554;DHT22;2800;49.528;8.666;2023-04-01T04:51:33;9.60;99.90
5554;DHT22;2800;49.528;8.666;2023-04-01T04:54:01;9.60;99.90
5554;DHT22;2800;49.528;8.666;2023-04-01T04:56:27;9.60;99.90
5554;DHT22;2800;49.528;8.666;2023-04-01T04:58:52;9.50;99.90
5554;DHT22;2800;49.528;8.666;2023-04-01T05:01:18;9.50;99.90
5554;DHT22;2800;49.528;8.666;2023-04-01T05:03:44;9.40;99.90
5554;DHT22;2800;49.528;8.666;2023-04-01T05:06:12;9.30;99.90
5554;DHT22;2800;49.528;8.666;2023-04-01T05:08:39;9.30;99.90
5554;DHT22;2800;49.528;8.666;2023-04-01T05:11:07;9.20;99.90
5554;DHT22;2800;49.528;8.666;2023-04-01T05:13:35;9.20;99.90
5554;DHT22;2800;49.528;8.666;2023-04-01T05:16:00;9.10;99.90
5554;DHT22;2800;49.528;8.666;2023-04-01T05:18:26;9.10;99.90
5554;DHT22;2800;49.528;8.666;2023-04-01T05:20:53;9.20;99.90
5554;DHT22;2800;49.528;8.666;2023-04-01T05:23:19;9.10;99.90
5554;DHT22;2800;49.528;8.666;2023-04-01T05:25:47;9.10;99.90
5554;DHT22;2800;49.528;8.666;2023-04-01T05:28:13;9.00;99.90
5554;DHT22;2800;49.528;8.666;2023-04-01T05:30:43;9.00;99.90
5554;DHT22;2800;49.528;8.666;2023-04-01T05:33:10;9.00;99.90
5554;DHT22;2800;49.528;8.666;2023-04-01T05:35:36;8.90;99.90
5554;DHT22;2800;49.528;8.666;2023-04-01T05:38:02;9.00;99.90
5554;DHT22;2800;49.528;8.666;2023-04-01T05:40:28;9.00;99.90
5554;DHT22;2800;49.528;8.666;2023-04-01T05:42:53;9.00;99.90
5554;DHT22;2800;49.528;8.666;2023-04-01T05:45:20;9.00;99.90
5554;DHT22;2800;49.528;8.666;2023-04-01T05:47:45;9.00;99.90
5554;DHT22;2800;49.528;8.666;2023-04-01T05:50:11;9.10;99.90
5554;DHT22;2800;49.528;8.666;2023-04-01T05:52:37;9.10;99.90
5554;DHT22;2800;49.528;8.666;2023-04-01T05:55:03;9.10;99.90
5554;DHT22;2800;49.528;8.666;2023-04-01T05:57:29;9.10;99.90
5554;DHT22;2800;49.528;8.666;2023-04-01T05:59:55;9.10;99.90
5554;DHT22;2800;49.528;8.666;2023-04-01T06:02:20;9.10;99.90
5554;DHT22;2800;49.528;8.666;2023-04-01T06:04:46;9.10;99.90
5554;DHT22;2800;49.528;8.666;2023-04-01T06:07:17;9.20;99.90
5554;DHT22;2800;49.528;8.666;2023-04-01T06:09:44;9.20;99.90
5554;DHT22;2800;49.528;8.666;2023-04-01T06:15:25;9.20;99.90
5554;DHT22;2800;49.528;8.666;2023-04-01T06:20:56;9.20;99.90
5554;DHT22;2800;49.528;8.666;2023-04-01T06:23:44;9.30;99.90
5554;DHT22;2800;49.528;8.666;2023-04-01T06:37:36;9.40;99.90
5554;DHT22;2800;49.528;8.666;2023-04-01T06:43:20;9.40;99.90
5554;DHT22;2800;49.528;8.666;2023-04-01T06:46:18;9.40;99.90
5554;DHT22;2800;49.528;8.666;2023-04-01T06:52:06;9.40;99.90
5554;DHT22;2800;49.528;8.666;2023-04-01T06:54:44;9.40;99.90
5554;DHT22;2800;49.528;8.666;2023-04-01T06:57:31;9.40;99.90
5554;DHT22;2800;49.528;8.666;2023-04-01T07:00:00;9.40;99.90
5554;DHT22;2800;49.528;8.666;2023-04-01T07:04:57;9.40;99.90
5554;DHT22;2800;49.528;8.666;2023-04-01T07:07:41;9.40;99.90
5554;DHT22;2800;49.528;8.666;2023-04-01T07:10:23;9.40;99.90
5554;DHT22;2800;49.528;8.666;2023-04-01T07:12:54;9.40;99.90
5554;DHT22;2800;49.528;8.666;2023-04-01T07:15:30;9.40;99.90
5554;DHT22;2800;49.528;8.666;2023-04-01T07:18:28;9.40;99.90
5554;DHT22;2800;49.528;8.666;2023-04-01T07:20:55;9.40;99.90
5554;DHT22;2800;49.528;8.666;2023-04-01T07:23:42;9.40;99.90
5554;DHT22;2800;49.528;8.666;2023-04-01T07:26:21;9.40;99.90
5554;DHT22;2800;49.528;8.666;2023-04-01T07:28:48;9.40;99.90
5554;DHT22;2800;49.528;8.666;2023-04-01T07:31:29;9.30;99.90
5554;DHT22;2800;49.528;8.666;2023-04-01T07:34:12;9.30;99.90
5554;DHT22;2800;49.528;8.666;2023-04-01T07:37:09;9.20;99.90
5554;DHT22;2800;49.528;8.666;2023-04-01T07:45:16;9.20;99.90
5554;DHT22;2800;49.528;8.666;2023-04-01T07:50:34;9.10;99.90
5554;DHT22;2800;49.528;8.666;2023-04-01T07:56:18;9.10;99.90
5554;DHT22;2800;49.528;8.666;2023-04-01T08:07:51;9.00;99.90
5554;DHT22;2800;49.528;8.666;2023-04-01T08:10:40;9.00;99.90
5554;DHT22;2800;49.528;8.666;2023-04-01T08:13:27;9.00;99.90
5554;DHT22;2800;49.528;8.666;2023-04-01T08:16:06;9.10;99.90
5554;DHT22;2800;49.528;8.666;2023-04-01T08:18:39;9.00;99.90
5554;DHT22;2800;49.528;8.666;2023-04-01T08:21:28;9.10;99.90
5554;DHT22;2800;49.528;8.666;2023-04-01T08:23:57;9.10;99.90
5554;DHT22;2800;49.528;8.666;2023-04-01T08:26:39;9.10;99.90
5554;DHT22;2800;49.528;8.666;2023-04-01T08:29:15;9.20;99.90
5554;DHT22;2800;49.528;8.666;2023-04-01T08:32:00;9.10;99.90
5554;DHT22;2800;49.528;8.666;2023-04-01T08:34:39;9.10;99.90
5554;DHT22;2800;49.528;8.666;2023-04-01T08:37:15;9.00;99.90
5554;DHT22;2800;49.528;8.666;2023-04-01T08:39:49;9.00;99.90
5554;DHT22;2800;49.528;8.666;2023-04-01T08:51:13;8.80;99.90
5554;DHT22;2800;49.528;8.666;2023-04-01T08:59:04;8.80;99.90
5554;DHT22;2800;49.528;8.666;2023-04-01T09:10:16;8.90;99.90
5554;DHT22;2800;49.528;8.666;2023-04-01T09:20:50;8.90;99.90
5554;DHT22;2800;49.528;8.666;2023-04-01T09:23:36;8.90;99.90
5554;DHT22;2800;49.528;8.666;2023-04-01T09:26:42;8.90;99.90
5554;DHT22;2800;49.528;8.666;2023-04-01T09:29:37;8.90;99.90
5554;DHT22;2800;49.528;8.666;2023-04-01T09:32:24;8.90;99.90
5554;DHT22;2800;49.528;8.666;2023-04-01T09:38:18;8.90;99.90
5554;DHT22;2800;49.528;8.666;2023-04-01T10:07:03;9.20;99.90
5554;DHT22;2800;49.528;8.666;2023-04-01T10:12:58;9.30;99.90
5554;DHT22;2800;49.528;8.666;2023-04-01T10:24:17;9.30;99.90
5554;DHT22;2800;49.528;8.666;2023-04-01T10:40:20;9.40;99.90
5554;DHT22;2800;49.528;8.666;2023-04-01T10:43:33;9.30;99.90
5554;DHT22;2800;49.528;8.666;2023-04-01T10:46:28;9.30;99.90
5554;DHT22;2800;49.528;8.666;2023-04-01T10:52:18;9.30;99.90
5554;DHT22;2800;49.528;8.666;2023-04-01T10:57:50;9.40;99.90
5554;DHT22;2800;49.528;8.666;2023-04-01T11:03:35;9.40;99.90
5554;DHT22;2800;49.528;8.666;2023-04-01T11:06:27;9.40;99.90
5554;DHT22;2800;49.528;8.666;2023-04-01T11:15:19;9.40;99.90
5554;DHT22;2800;49.528;8.666;2023-04-01T11:21:30;9.50;99.90
5554;DHT22;2800;49.528;8.666;2023-04-01T11:26:44;9.50;99.90
5554;DHT22;2800;49.528;8.666;2023-04-01T11:32:39;9.60;99.90
5554;DHT22;2800;49.528;8.666;2023-04-01T11:35:19;9.60;99.90
5554;DHT22;2800;49.528;8.666;2023-04-01T11:38:34;9.70;99.90
5554;DHT22;2800;49.528;8.666;2023-04-01T11:40:41;9.70;99.90
5554;DHT22;2800;49.528;8.666;2023-04-01T11:43:18;9.70;99.90
5554;DHT22;2800;49.528;8.666;2023-04-01T11:45:58;9.70;99.90
5554;DHT22;2800;49.528;8.666;2023-04-01T11:48:45;9.70;99.90
5554;DHT22;2800;49.528;8.666;2023-04-01T11:55:12;9.70;99.90
5554;DHT22;2800;49.528;8.666;2023-04-01T11:57:43;9.70;99.90
5554;DHT22;2800;49.528;8.666;2023-04-01T12:03:37;9.80;99.90
5554;DHT22;2800;49.528;8.666;2023-04-01T12:06:19;9.80;99.90
5554;DHT22;2800;49.528;8.666;2023-04-01T12:08:57;9.80;99.90
5554;DHT22;2800;49.528;8.666;2023-04-01T12:11:38;9.80;99.90
5554;DHT22;2800;49.528;8.666;2023-04-01T12:17:39;9.90;99.90
5554;DHT22;2800;49.528;8.666;2023-04-01T12:20:20;9.90;99.90
5554;DHT22;2800;49.528;8.666;2023-04-01T12:25:59;9.90;99.90
5554;DHT22;2800;49.528;8.666;2023-04-01T12:37:08;10.00;99.90
5554;DHT22;2800;49.528;8.666;2023-04-01T12:45:14;10.20;99.90
5554;DHT22;2800;49.528;8.666;2023-04-01T12:47:51;10.10;99.90
5554;DHT22;2800;49.528;8.666;2023-04-01T12:56:23;10.10;99.90
5554;DHT22;2800;49.528;8.666;2023-04-01T13:02:03;10.20;99.90
5554;DHT22;2800;49.528;8.666;2023-04-01T13:04:40;10.20;99.90
5554;DHT22;2800;49.528;8.666;2023-04-01T13:12:36;10.30;99.90
5554;DHT22;2800;49.528;8.666;2023-04-01T13:18:10;10.40;99.90
5554;DHT22;2800;49.528;8.666;2023-04-01T13:20:49;10.30;99.90
5554;DHT22;2800;49.528;8.666;2023-04-01T13:23:38;10.30;99.90
5554;DHT22;2800;49.528;8.666;2023-04-01T13:26:34;10.40;99.90
5554;DHT22;2800;49.528;8.666;2023-04-01T13:29:20;10.40;99.90
5554;DHT22;2800;49.528;8.666;2023-04-01T13:32:04;10.40;99.90
5554;DHT22;2800;49.528;8.666;2023-04-01T13:34:33;10.50;99.90
5554;DHT22;2800;49.528;8.666;2023-04-01T13:42:53;10.40;99.90
5554;DHT22;2800;49.528;8.666;2023-04-01T13:45:22;10.40;99.90
5554;DHT22;2800;49.528;8.666;2023-04-01T13:51:02;10.30;99.90
5554;DHT22;2800;49.528;8.666;2023-04-01T13:53:43;10.30;99.90
5554;DHT22;2800;49.528;8.666;2023-04-01T13:56:33;10.30;99.90
5554;DHT22;2800;49.528;8.666;2023-04-01T14:02:08;10.30;99.90
5554;DHT22;2800;49.528;8.666;2023-04-01T14:07:48;10.50;99.90
5554;DHT22;2800;49.528;8.666;2023-04-01T14:13:17;10.50;99.90
5554;DHT22;2800;49.528;8.666;2023-04-01T14:16:13;10.60;99.90
5554;DHT22;2800;49.528;8.666;2023-04-01T14:21:38;10.70;99.90
5554;DHT22;2800;49.528;8.666;2023-04-01T14:24:32;10.70;99.90
5554;DHT22;2800;49.528;8.666;2023-04-01T14:27:41;10.70;99.90
5554;DHT22;2800;49.528;8.666;2023-04-01T14:35:41;10.80;99.90
5554;DHT22;2800;49.528;8.666;2023-04-01T14:38:28;10.70;99.90
5554;DHT22;2800;49.528;8.666;2023-04-01T14:43:32;10.70;99.90
5554;DHT22;2800;49.528;8.666;2023-04-01T14:46:20;10.60;99.90
5554;DHT22;2800;49.528;8.666;2023-04-01T14:48:59;10.50;99.90
5554;DHT22;2800;49.528;8.666;2023-04-01T14:51:32;10.50;99.90
5554;DHT22;2800;49.528;8.666;2023-04-01T14:59:09;10.70;99.90
5554;DHT22;2800;49.528;8.666;2023-04-01T15:12:12;10.70;99.90
5554;DHT22;2800;49.528;8.666;2023-04-01T15:23:28;10.70;99.90
5554;DHT22;2800;49.528;8.666;2023-04-01T15:29:07;10.70;99.90
5554;DHT22;2800;49.528;8.666;2023-04-01T15:37:04;10.50;99.90
5554;DHT22;2800;49.528;8.666;2023-04-01T15:39:46;10.40;99.90
5554;DHT22;2800;49.528;8.666;2023-04-01T15:42:43;10.40;99.90
5554;DHT22;2800;49.528;8.666;2023-04-01T15:45:36;10.40;99.90
5554;DHT22;2800;49.528;8.666;2023-04-01T15:59:34;10.40;99.90
5554;DHT22;2800;49.528;8.666;2023-04-01T16:07:41;10.20;99.90
5554;DHT22;2800;49.528;8.666;2023-04-01T16:23:47;10.00;99.90
5554;DHT22;2800;49.528;8.666;2023-04-01T16:26:41;10.00;99.90
5554;DHT22;2800;49.528;8.666;2023-04-01T16:34:56;10.00;99.90
5554;DHT22;2800;49.528;8.666;2023-04-01T16:37:48;10.00;99.90
5554;DHT22;2800;49.528;8.666;2023-04-01T16:43:19;10.00;99.90
5554;DHT22;2800;49.528;8.666;2023-04-01T16:49:02;10.20;99.90
5554;DHT22;2800;49.528;8.666;2023-04-01T16:59:39;10.30;99.90
5554;DHT22;2800;49.528;8.666;2023-04-01T17:07:49;10.30;99.90
5554;DHT22;2800;49.528;8.666;2023-04-01T17:10:42;10.20;99.90
5554;DHT22;2800;49.528;8.666;2023-04-01T17:18:50;10.30;99.90
5554;DHT22;2800;49.528;8.666;2023-04-01T17:21:25;10.30;99.90
5554;DHT22;2800;49.528;8.666;2023-04-01T17:26:56;10.30;99.90
5554;DHT22;2800;49.528;8.666;2023-04-01T17:29:46;10.30;99.90
5554;DHT22;2800;49.528;8.666;2023-04-01T17:32:29;10.30;99.90
5554;DHT22;2800;49.528;8.666;2023-04-01T17:40:44;10.30;99.90
5554;DHT22;2800;49.528;8.666;2023-04-01T17:43:45;10.30;99.90
5554;DHT22;2800;49.528;8.666;2023-04-01T17:58:00;10.40;99.90
5554;DHT22;2800;49.528;8.666;2023-04-01T18:03:33;10.30;99.90
5554;DHT22;2800;49.528;8.666;2023-04-01T18:06:12;10.20;99.90
5554;DHT22;2800;49.528;8.666;2023-04-01T18:08:57;10.20;99.90
5554;DHT22;2800;49.528;8.666;2023-04-01T18:20:18;9.90;99.90
5554;DHT22;2800;49.528;8.666;2023-04-01T18:23:00;9.80;99.90
5554;DHT22;2800;49.528;8.666;2023-04-01T18:25:42;10.00;99.90
5554;DHT22;2800;49.528;8.666;2023-04-01T18:28:30;9.80;99.90
5554;DHT22;2800;49.528;8.666;2023-04-01T18:31:15;9.80;99.90
5554;DHT22;2800;49.528;8.666;2023-04-01T18:36:19;9.60;99.90
5554;DHT22;2800;49.528;8.666;2023-04-01T18:44:52;9.40;99.90
5554;DHT22;2800;49.528;8.666;2023-04-01T18:47:34;9.40;99.90
5554;DHT22;2800;49.528;8.666;2023-04-01T18:50:27;9.50;99.90
5554;DHT22;2800;49.528;8.666;2023-04-01T18:53:08;9.40;99.90
5554;DHT22;2800;49.528;8.666;2023-04-01T18:55:40;9.30;99.90
5554;DHT22;2800;49.528;8.666;2023-04-01T19:01:25;9.40;99.90
5554;DHT22;2800;49.528;8.666;2023-04-01T19:06:52;9.40;99.90
5554;DHT22;2800;49.528;8.666;2023-04-01T19:12:07;9.20;99.90
5554;DHT22;2800;49.528;8.666;2023-04-01T19:15:02;9.20;99.90
5554;DHT22;2800;49.528;8.666;2023-04-01T19:17:38;9.20;99.90
5554;DHT22;2800;49.528;8.666;2023-04-01T19:23:36;9.20;99.90
5554;DHT22;2800;49.528;8.666;2023-04-01T19:26:10;9.10;99.90
5554;DHT22;2800;49.528;8.666;2023-04-01T19:29:30;9.10;99.90
5554;DHT22;2800;49.528;8.666;2023-04-01T19:50:55;9.00;99.90
5554;DHT22;2800;49.528;8.666;2023-04-01T19:56:18;9.00;99.90
5554;DHT22;2800;49.528;8.666;2023-04-01T20:04:40;8.90;99.90
5554;DHT22;2800;49.528;8.666;2023-04-01T20:12:55;9.00;99.90
5554;DHT22;2800;49.528;8.666;2023-04-01T20:15:34;9.00;99.90
5554;DHT22;2800;49.528;8.666;2023-04-01T20:18:19;9.00;99.90
5554;DHT22;2800;49.528;8.666;2023-04-01T20:21:16;9.00;99.90
5554;DHT22;2800;49.528;8.666;2023-04-01T20:26:24;9.00;99.90
5554;DHT22;2800;49.528;8.666;2023-04-01T20:29:23;9.00;99.90
5554;DHT22;2800;49.528;8.666;2023-04-01T20:32:18;9.00;99.90
5554;DHT22;2800;49.528;8.666;2023-04-01T20:39:01;9.00;99.90
5554;DHT22;2800;49.528;8.666;2023-04-01T20:40:49;9.00;99.90
5554;DHT22;2800;49.528;8.666;2023-04-01T20:43:30;9.00;99.90
5554;DHT22;2800;49.528;8.666;2023-04-01T20:46:16;9.00;99.90
5554;DHT22;2800;49.528;8.666;2023-04-01T20:51:32;9.10;99.90
5554;DHT22;2800;49.528;8.666;2023-04-01T20:57:09;9.00;99.90
5554;DHT22;2800;49.528;8.666;2023-04-01T21:02:36;9.10;99.90
5554;DHT22;2800;49.528;8.666;2023-04-01T21:08:16;9.10;99.90
5554;DHT22;2800;49.528;8.666;2023-04-01T21:11:38;9.00;99.90
5554;DHT22;2800;49.528;8.666;2023-04-01T21:17:02;9.00;99.90
5554;DHT22;2800;49.528;8.666;2023-04-01T21:19:48;9.00;99.90
5554;DHT22;2800;49.528;8.666;2023-04-01T21:22:47;9.00;99.90
5554;DHT22;2800;49.528;8.666;2023-04-01T21:25:26;9.00;99.90
5554;DHT22;2800;49.528;8.666;2023-04-01T21:28:47;9.00;99.90
5554;DHT22;2800;49.528;8.666;2023-04-01T21:34:25;8.90;99.90
5554;DHT22;2800;49.528;8.666;2023-04-01T21:40:14;8.90;99.90
5554;DHT22;2800;49.528;8.666;2023-04-01T21:42:45;8.90;99.90
5554;DHT22;2800;49.528;8.666;2023-04-01T22:00:17;8.90;99.90
5554;DHT22;2800;49.528;8.666;2023-04-01T22:02:55;8.90;99.90
5554;DHT22;2800;49.528;8.666;2023-04-01T22:05:40;8.90;99.90
5554;DHT22;2800;49.528;8.666;2023-04-01T22:16:54;8.90;99.90
5554;DHT22;2800;49.528;8.666;2023-04-01T22:19:37;8.90;99.90
5554;DHT22;2800;49.528;8.666;2023-04-01T22:22:27;8.90;99.90
5554;DHT22;2800;49.528;8.666;2023-04-01T22:28:13;8.90;99.90
5554;DHT22;2800;49.528;8.666;2023-04-01T22:33:47;8.90;99.90
5554;DHT22;2800;49.528;8.666;2023-04-01T22:36:37;8.90;99.90
5554;DHT22;2800;49.528;8.666;2023-04-01T22:39:09;8.90;99.90
5554;DHT22;2800;49.528;8.666;2023-04-01T22:42:06;8.80;99.90
5554;DHT22;2800;49.528;8.666;2023-04-01T22:45:00;8.80;99.90
5554;DHT22;2800;49.528;8.666;2023-04-01T22:50:23;8.80;99.90
5554;DHT22;2800;49.528;8.666;2023-04-01T22:53:02;8.80;99.90
5554;DHT22;2800;49.528;8.666;2023-04-01T22:55:34;8.80;99.90
5554;DHT22;2800;49.528;8.666;2023-04-01T22:58:09;8.80;99.90
5554;DHT22;2800;49.528;8.666;2023-04-01T23:00:42;8.90;99.90
5554;DHT22;2800;49.528;8.666;2023-04-01T23:03:21;8.80;99.90
5554;DHT22;2800;49.528;8.666;2023-04-01T23:05:55;8.80;99.90
5554;DHT22;2800;49.528;8.666;2023-04-01T23:08:43;8.80;99.90
5554;DHT22;2800;49.528;8.666;2023-04-01T23:11:20;8.80;99.90
5554;DHT22;2800;49.528;8.666;2023-04-01T23:22:26;8.80;99.90
5554;DHT22;2800;49.528;8.666;2023-04-01T23:27:32;8.80;99.90
5554;DHT22;2800;49.528;8.666;2023-04-01T23:30:00;8.70;99.90
5554;DHT22;2800;49.528;8.666;2023-04-01T23:32:27;8.70;99.90
5554;DHT22;2800;49.528;8.666;2023-04-01T23:34:56;8.70;99.90
5554;DHT22;2800;49.528;8.666;2023-04-01T23:37:23;8.70;99.90
5554;DHT22;2800;49.528;8.666;2023-04-01T23:39:50;8.70;99.90
5554;DHT22;2800;49.528;8.666;2023-04-01T23:44:47;8.70;99.90
5554;DHT22;2800;49.528;8.666;2023-04-01T23:47:23;8.60;99.90
5554;DHT22;2800;49.528;8.666;2023-04-01T23:50:11;8.50;99.90
5554;DHT22;2800;49.528;8.666;2023-04-01T23:52:44;8.50;99.90
5554;DHT22;2800;49.528;8.666;2023-04-01T23:55:17;8.40;99.90
5554;DHT22;2800;49.528;8.666;2023-04-01T23:58:22;8.40;99.90
